createdAt,value
2023-03-06T00:00:51.880Z,3.34
2023-03-06T00:03:20.791Z,3.28
2023-03-06T00:05:48.870Z,3.14
2023-03-06T00:08:16.719Z,2.99
2023-03-06T00:10:44.656Z,3.10
2023-03-06T00:13:15.300Z,3.15
2023-03-06T00:15:43.135Z,3.03
2023-03-06T00:18:10.983Z,2.95
2023-03-06T00:20:40.593Z,3.01
2023-03-06T00:23:09.736Z,2.99
2023-03-06T00:25:38.881Z,3.03
2023-03-06T00:28:06.806Z,3.16
2023-03-06T00:30:34.811Z,3.31
2023-03-06T00:33:03.143Z,3.09
2023-03-06T00:35:31.576Z,2.93
2023-03-06T00:37:59.854Z,3.04
2023-03-06T00:40:27.714Z,3.09
2023-03-06T00:42:55.570Z,3.23
2023-03-06T00:45:23.645Z,3.20
2023-03-06T00:47:51.992Z,2.95
2023-03-06T00:50:19.983Z,3.00
2023-03-06T00:52:47.869Z,3.17
2023-03-06T00:55:15.850Z,3.20
2023-03-06T00:57:43.728Z,3.06
2023-03-06T01:00:12.980Z,3.07
2023-03-06T01:02:41.471Z,3.12
2023-03-06T01:05:10.399Z,3.15
2023-03-06T01:07:38.766Z,2.93
2023-03-06T01:10:08.115Z,3.01
2023-03-06T01:12:36.146Z,3.17
2023-03-06T01:15:04.936Z,2.99
2023-03-06T01:17:32.736Z,3.00
2023-03-06T01:20:00.651Z,3.02
2023-03-06T01:22:28.595Z,2.98
2023-03-06T01:24:56.474Z,2.88
2023-03-06T01:27:24.400Z,2.96
2023-03-06T01:29:52.225Z,3.07
2023-03-06T01:32:21.501Z,2.98
2023-03-06T01:34:49.502Z,2.98
2023-03-06T01:37:17.376Z,2.92
2023-03-06T01:39:45.241Z,2.86
2023-03-06T01:42:13.126Z,2.91
2023-03-06T01:45:07.790Z,2.98
2023-03-06T01:47:36.386Z,3.05
2023-03-06T01:50:06.679Z,2.87
2023-03-06T01:52:54.254Z,2.96
2023-03-06T01:55:28.229Z,3.05
2023-03-06T01:57:59.281Z,2.99
2023-03-06T02:00:29.976Z,2.71
2023-03-06T02:03:07.206Z,3.07
2023-03-06T02:05:40.103Z,2.93
2023-03-06T02:08:12.615Z,2.97
2023-03-06T02:11:00.917Z,2.93
2023-03-06T02:13:29.830Z,2.99
2023-03-06T02:15:58.706Z,2.78
2023-03-06T02:18:27.913Z,2.72
2023-03-06T02:20:59.385Z,2.99
2023-03-06T02:23:52.145Z,2.74
2023-03-06T02:26:22.083Z,2.61
2023-03-06T02:28:50.017Z,2.63
2023-03-06T02:31:26.903Z,2.54
2023-03-06T02:34:28.700Z,2.84
2023-03-06T02:37:05.617Z,2.65
2023-03-06T02:39:34.474Z,2.72
2023-03-06T02:42:02.494Z,2.90
2023-03-06T02:44:35.186Z,2.82
2023-03-06T02:47:03.091Z,2.80
2023-03-06T02:49:31.429Z,2.77
2023-03-06T02:51:59.385Z,2.79
2023-03-06T02:54:27.193Z,2.72
2023-03-06T02:56:55.185Z,2.57
2023-03-06T02:59:23.148Z,2.59
2023-03-06T03:01:51.776Z,2.85
2023-03-06T03:04:19.999Z,2.77
2023-03-06T03:06:47.851Z,2.70
2023-03-06T03:09:15.771Z,2.82
2023-03-06T03:11:43.670Z,2.72
2023-03-06T03:14:11.558Z,2.66
2023-03-06T03:16:39.487Z,2.77
2023-03-06T03:19:07.509Z,2.75
2023-03-06T03:21:35.789Z,2.75
2023-03-06T03:24:03.832Z,2.78
2023-03-06T03:26:31.692Z,2.72
2023-03-06T03:29:13.948Z,2.53
2023-03-06T03:31:41.953Z,2.55
2023-03-06T03:34:10.323Z,2.74
2023-03-06T03:36:40.706Z,2.69
2023-03-06T03:39:10.394Z,2.49
2023-03-06T03:41:38.835Z,2.53
2023-03-06T03:44:09.270Z,2.67
2023-03-06T03:46:37.311Z,2.70
2023-03-06T03:49:09.379Z,2.55
2023-03-06T03:51:38.357Z,2.55
2023-03-06T03:54:06.866Z,2.58
2023-03-06T03:56:40.747Z,2.65
2023-03-06T03:59:15.260Z,2.64
2023-03-06T04:01:52.558Z,2.53
2023-03-06T04:04:20.573Z,2.50
2023-03-06T04:06:48.776Z,2.41
2023-03-06T04:09:19.130Z,2.36
2023-03-06T04:11:47.057Z,2.51
2023-03-06T04:14:14.949Z,2.50
2023-03-06T04:16:43.397Z,2.45
2023-03-06T04:19:11.762Z,2.75
2023-03-06T04:21:40.431Z,2.61
2023-03-06T04:24:09.744Z,2.63
2023-03-06T04:26:37.658Z,2.26
2023-03-06T04:29:06.275Z,2.53
2023-03-06T04:31:34.435Z,2.55
2023-03-06T04:34:02.736Z,2.54
2023-03-06T04:36:33.883Z,2.55
2023-03-06T04:39:13.054Z,2.60
2023-03-06T04:41:42.263Z,2.57
2023-03-06T04:44:10.408Z,2.56
2023-03-06T04:46:38.281Z,2.52
2023-03-06T04:49:06.121Z,2.69
2023-03-06T04:51:36.782Z,2.49
2023-03-06T04:54:05.462Z,2.56
2023-03-06T04:56:34.730Z,2.56
2023-03-06T04:59:04.269Z,2.40
2023-03-06T05:01:32.186Z,2.38
2023-03-06T05:04:00.143Z,2.52
2023-03-06T05:06:28.068Z,2.51
2023-03-06T05:08:55.943Z,2.51
2023-03-06T05:11:23.794Z,2.44
2023-03-06T05:13:51.682Z,2.43
2023-03-06T05:16:19.611Z,2.50
2023-03-06T05:18:50.408Z,2.60
2023-03-06T05:21:18.470Z,2.57
2023-03-06T05:23:47.559Z,2.54
2023-03-06T05:26:15.561Z,2.68
2023-03-06T05:28:43.479Z,2.48
2023-03-06T05:31:11.477Z,2.51
2023-03-06T05:33:39.286Z,2.50
2023-03-06T05:36:09.285Z,2.44
2023-03-06T05:38:37.198Z,2.58
2023-03-06T05:41:05.191Z,2.44
2023-03-06T05:43:33.089Z,2.29
2023-03-06T05:46:03.529Z,2.55
2023-03-06T05:48:35.961Z,2.50
2023-03-06T05:51:05.237Z,2.38
2023-03-06T05:53:33.199Z,2.33
2023-03-06T05:56:03.957Z,2.58
2023-03-06T05:58:33.616Z,2.51
2023-03-06T06:01:09.447Z,2.48
2023-03-06T06:03:37.778Z,2.57
2023-03-06T06:06:07.071Z,2.49
2023-03-06T06:08:35.722Z,2.53
2023-03-06T06:11:08.203Z,2.83
2023-03-06T06:13:38.212Z,2.63
2023-03-06T06:16:08.112Z,2.65
2023-03-06T06:18:41.115Z,2.69
2023-03-06T06:21:11.549Z,2.82
2023-03-06T06:23:39.543Z,2.95
2023-03-06T06:26:09.422Z,2.69
2023-03-06T06:28:37.468Z,2.74
2023-03-06T06:31:10.562Z,2.82
2023-03-06T06:33:39.495Z,2.70
2023-03-06T06:36:16.001Z,2.91
2023-03-06T06:38:43.924Z,2.85
2023-03-06T06:41:38.809Z,2.88
2023-03-06T06:44:00.242Z,3.03
2023-03-06T06:49:17.694Z,3.20
2023-03-06T06:51:45.616Z,3.18
2023-03-06T06:54:13.719Z,3.07
2023-03-06T06:56:41.617Z,3.15
2023-03-06T06:59:16.710Z,3.22
2023-03-06T07:01:45.442Z,3.02
2023-03-06T07:04:13.831Z,3.22
2023-03-06T07:06:42.639Z,3.30
2023-03-06T07:09:12.246Z,3.25
2023-03-06T07:11:41.468Z,3.25
2023-03-06T07:14:09.425Z,3.28
2023-03-06T07:16:37.376Z,3.43
2023-03-06T07:19:06.319Z,3.41
2023-03-06T07:21:34.346Z,3.40
2023-03-06T07:24:02.294Z,3.46
2023-03-06T07:26:32.733Z,3.42
2023-03-06T07:29:03.630Z,3.41
2023-03-06T07:31:32.084Z,3.66
2023-03-06T07:34:00.230Z,3.48
2023-03-06T07:36:28.699Z,3.60
2023-03-06T07:38:56.536Z,3.68
2023-03-06T07:41:24.427Z,3.68
2023-03-06T07:43:52.374Z,3.62
2023-03-06T07:46:20.362Z,3.58
2023-03-06T07:48:48.264Z,3.88
2023-03-06T07:51:21.453Z,3.91
2023-03-06T07:53:50.370Z,3.96
2023-03-06T07:56:18.198Z,4.07
2023-03-06T07:58:47.685Z,4.05
2023-03-06T08:01:20.467Z,3.84
2023-03-06T08:03:50.082Z,3.78
2023-03-06T08:06:22.271Z,3.92
2023-03-06T08:08:52.325Z,4.09
2023-03-06T08:11:23.105Z,4.16
2023-03-06T08:13:52.854Z,4.19
2023-03-06T08:16:26.792Z,4.27
2023-03-06T08:18:55.423Z,4.22
2023-03-06T08:21:26.428Z,4.33
2023-03-06T08:23:54.824Z,4.33
2023-03-06T08:26:25.529Z,4.54
2023-03-06T08:28:54.890Z,4.58
2023-03-06T08:31:27.744Z,4.65
2023-03-06T08:33:57.162Z,4.57
2023-03-06T08:36:25.559Z,4.62
2023-03-06T08:38:53.538Z,4.58
2023-03-06T08:41:21.653Z,4.81
2023-03-06T08:43:50.465Z,4.87
2023-03-06T08:46:19.650Z,4.90
2023-03-06T08:48:48.253Z,4.91
2023-03-06T08:51:17.303Z,5.11
2023-03-06T08:53:45.906Z,5.11
2023-03-06T08:56:21.590Z,5.07
2023-03-06T08:58:50.246Z,5.18
2023-03-06T09:01:27.040Z,5.17
2023-03-06T09:03:57.022Z,5.10
2023-03-06T09:06:26.860Z,5.21
2023-03-06T09:08:55.499Z,5.04
2023-03-06T09:11:25.104Z,5.15
2023-03-06T09:13:53.921Z,5.11
2023-03-06T09:16:22.026Z,5.19
2023-03-06T09:18:52.831Z,5.25
2023-03-06T09:21:21.965Z,5.11
2023-03-06T09:23:50.439Z,5.33
2023-03-06T09:26:18.703Z,5.56
2023-03-06T09:28:47.382Z,5.48
2023-03-06T09:31:18.203Z,5.54
2023-03-06T09:33:47.469Z,5.70
2023-03-06T09:36:20.400Z,5.52
2023-03-06T09:38:50.028Z,5.36
2023-03-06T09:41:29.598Z,5.44
2023-03-06T09:44:15.392Z,5.61
2023-03-06T09:47:08.042Z,5.43
2023-03-06T09:49:44.805Z,5.47
2023-03-06T09:52:19.883Z,5.67
2023-03-06T09:54:54.525Z,5.72
2023-03-06T09:57:29.380Z,5.79
2023-03-06T10:00:04.253Z,5.77
2023-03-06T10:02:49.263Z,5.72
2023-03-06T10:05:22.695Z,5.47
2023-03-06T10:07:58.567Z,5.53
2023-03-06T10:10:39.755Z,5.68
2023-03-06T10:13:24.400Z,5.69
2023-03-06T10:16:01.925Z,5.62
2023-03-06T10:18:30.020Z,5.93
2023-03-06T10:21:13.607Z,5.83
2023-03-06T10:23:55.112Z,6.01
2023-03-06T10:26:26.249Z,6.38
2023-03-06T10:28:54.149Z,6.44
2023-03-06T10:31:25.282Z,6.37
2023-03-06T10:34:15.262Z,6.64
2023-03-06T10:36:43.231Z,6.53
2023-03-06T10:39:21.106Z,6.41
2023-03-06T10:41:49.612Z,6.69
2023-03-06T10:44:19.205Z,6.58
2023-03-06T10:46:51.651Z,6.75
2023-03-06T10:49:28.349Z,6.77
2023-03-06T10:52:05.699Z,7.09
2023-03-06T10:54:36.972Z,7.13
2023-03-06T10:57:20.804Z,7.02
2023-03-06T11:00:00.302Z,7.06
2023-03-06T11:02:36.586Z,6.95
2023-03-06T11:05:06.224Z,6.79
2023-03-06T11:07:36.440Z,6.70
2023-03-06T11:10:23.667Z,6.45
2023-03-06T11:13:04.618Z,6.66
2023-03-06T11:15:32.560Z,6.73
2023-03-06T11:18:20.299Z,6.91
2023-03-06T11:20:54.301Z,6.69
2023-03-06T11:23:35.515Z,6.08
2023-03-06T11:26:20.173Z,5.93
2023-03-06T11:29:03.133Z,5.79
2023-03-06T11:31:38.924Z,6.08
2023-03-06T11:34:42.107Z,5.91
2023-03-06T11:37:34.495Z,6.24
2023-03-06T11:40:11.846Z,6.47
2023-03-06T11:42:44.328Z,6.67
2023-03-06T11:45:27.503Z,6.65
2023-03-06T11:48:14.711Z,6.69
2023-03-06T11:50:52.643Z,6.70
2023-03-06T11:53:32.157Z,7.06
2023-03-06T11:56:18.437Z,7.35
2023-03-06T11:59:01.326Z,7.38
2023-03-06T12:01:47.316Z,7.64
2023-03-06T12:04:33.725Z,7.89
2023-03-06T12:07:26.565Z,7.89
2023-03-06T12:10:19.221Z,7.17
2023-03-06T12:13:08.392Z,7.02
2023-03-06T12:16:26.170Z,7.31
2023-03-06T12:19:12.667Z,6.92
2023-03-06T12:22:03.448Z,7.56
2023-03-06T12:24:55.467Z,7.37
2023-03-06T12:27:48.679Z,7.25
2023-03-06T12:30:34.779Z,7.44
2023-03-06T12:33:27.010Z,7.16
2023-03-06T12:35:59.986Z,7.13
2023-03-06T12:39:00.711Z,7.32
2023-03-06T12:41:40.711Z,7.25
2023-03-06T12:44:21.037Z,7.55
2023-03-06T12:46:59.418Z,7.79
2023-03-06T12:49:33.444Z,7.30
2023-03-06T12:52:05.252Z,7.77
2023-03-06T12:54:38.928Z,7.48
2023-03-06T12:57:09.259Z,6.89
2023-03-06T12:59:47.908Z,6.92
2023-03-06T13:02:40.051Z,6.92
2023-03-06T13:05:14.031Z,6.96
2023-03-06T13:07:41.913Z,6.61
2023-03-06T13:10:16.293Z,6.65
2023-03-06T13:13:01.226Z,6.46
2023-03-06T13:15:33.798Z,6.55
2023-03-06T13:18:25.893Z,6.51
2023-03-06T13:20:55.536Z,6.66
2023-03-06T13:23:29.725Z,7.01
2023-03-06T13:25:58.436Z,7.15
2023-03-06T13:28:46.345Z,6.85
2023-03-06T13:31:33.973Z,6.75
2023-03-06T13:34:26.440Z,7.15
2023-03-06T13:37:16.889Z,7.06
2023-03-06T13:39:57.346Z,6.80
2023-03-06T13:42:55.316Z,6.99
2023-03-06T13:45:27.580Z,6.93
2023-03-06T13:48:22.575Z,6.77
2023-03-06T13:50:47.728Z,6.89
2023-03-06T13:53:36.958Z,6.56
2023-03-06T13:56:26.408Z,6.60
2023-03-06T13:59:33.586Z,6.61
2023-03-06T14:02:39.148Z,6.70
2023-03-06T14:05:14.129Z,6.62
2023-03-06T14:07:47.409Z,6.68
2023-03-06T14:10:25.813Z,6.86
2023-03-06T14:13:04.693Z,6.76
2023-03-06T14:15:50.873Z,6.79
2023-03-06T14:18:38.363Z,6.88
2023-03-06T14:21:14.410Z,6.72
2023-03-06T14:23:45.047Z,6.82
2023-03-06T14:26:22.875Z,6.87
2023-03-06T14:28:59.143Z,6.81
2023-03-06T14:31:36.527Z,6.90
2023-03-06T14:34:15.090Z,6.65
2023-03-06T14:36:46.583Z,6.56
2023-03-06T14:39:33.376Z,6.40
2023-03-06T14:42:27.081Z,6.59
2023-03-06T14:45:15.869Z,6.49
2023-03-06T14:47:49.284Z,6.45
2023-03-06T14:50:21.506Z,6.50
2023-03-06T14:53:26.088Z,6.69
2023-03-06T14:56:00.480Z,6.61
2023-03-06T14:58:50.159Z,6.35
2023-03-06T15:01:28.024Z,6.31
2023-03-06T15:03:59.648Z,6.48
2023-03-06T15:06:41.871Z,6.44
2023-03-06T15:09:26.596Z,6.31
2023-03-06T15:11:57.539Z,6.14
2023-03-06T15:14:43.044Z,6.28
2023-03-06T15:17:19.981Z,6.18
2023-03-06T15:19:56.720Z,6.31
2023-03-06T15:22:37.940Z,6.22
2023-03-06T15:25:27.183Z,6.33
2023-03-06T15:28:01.855Z,6.31
2023-03-06T15:30:35.091Z,6.12
2023-03-06T15:33:27.923Z,6.09
2023-03-06T15:36:01.759Z,5.93
2023-03-06T15:38:42.198Z,5.90
2023-03-06T15:41:42.026Z,5.79
2023-03-06T15:44:13.233Z,5.97
2023-03-06T15:46:41.703Z,5.85
2023-03-06T15:49:14.932Z,5.85
2023-03-06T15:51:42.908Z,5.76
2023-03-06T15:54:12.645Z,5.93
2023-03-06T15:56:43.295Z,5.83
2023-03-06T15:59:23.613Z,6.04
2023-03-06T16:01:52.604Z,6.05
2023-03-06T16:04:20.715Z,5.90
2023-03-06T16:06:48.826Z,5.92
2023-03-06T16:09:16.734Z,5.94
2023-03-06T16:11:45.505Z,5.85
2023-03-06T16:14:21.129Z,5.82
2023-03-06T16:16:50.443Z,5.76
2023-03-06T16:19:27.393Z,5.91
2023-03-06T16:21:56.770Z,5.86
2023-03-06T16:24:26.258Z,5.89
2023-03-06T16:26:55.017Z,5.84
2023-03-06T16:29:25.932Z,5.77
2023-03-06T16:31:55.492Z,5.66
2023-03-06T16:34:23.921Z,5.79
2023-03-06T16:36:51.852Z,5.71
2023-03-06T16:39:22.171Z,5.68
2023-03-06T16:41:50.220Z,5.89
2023-03-06T16:44:19.234Z,5.56
2023-03-06T16:46:49.088Z,5.72
2023-03-06T16:49:23.365Z,5.57
2023-03-06T16:51:52.776Z,5.54
2023-03-06T16:54:21.889Z,5.55
2023-03-06T16:56:49.901Z,5.52
2023-03-06T16:59:17.841Z,5.58
2023-03-06T17:01:45.781Z,5.63
2023-03-06T17:04:13.708Z,5.54
2023-03-06T17:06:41.924Z,5.53
2023-03-06T17:09:14.429Z,5.44
2023-03-06T17:11:46.824Z,5.55
2023-03-06T17:14:14.965Z,5.51
2023-03-06T17:16:42.915Z,5.49
2023-03-06T17:19:14.400Z,5.31
2023-03-06T17:21:43.851Z,5.33
2023-03-06T17:24:11.811Z,5.38
2023-03-06T17:26:40.258Z,5.37
2023-03-06T17:29:09.279Z,5.41
2023-03-06T17:31:37.143Z,5.42
2023-03-06T17:34:05.582Z,5.50
2023-03-06T17:36:33.905Z,5.34
2023-03-06T17:39:02.963Z,5.38
2023-03-06T17:41:32.797Z,5.39
2023-03-06T17:44:01.784Z,5.35
2023-03-06T17:46:31.822Z,5.22
2023-03-06T17:48:59.752Z,5.37
2023-03-06T17:51:27.688Z,5.31
2023-03-06T17:53:55.711Z,5.28
2023-03-06T17:56:23.714Z,5.35
2023-03-06T17:58:51.570Z,5.35
2023-03-06T18:01:22.668Z,5.26
2023-03-06T18:03:51.641Z,5.25
2023-03-06T18:06:21.150Z,5.26
2023-03-06T18:08:52.703Z,5.27
2023-03-06T18:11:22.289Z,5.30
2023-03-06T18:13:51.249Z,5.34
2023-03-06T18:16:21.760Z,5.15
2023-03-06T18:18:55.355Z,5.12
2023-03-06T18:21:24.774Z,5.13
2023-03-06T18:23:52.722Z,5.04
2023-03-06T18:26:23.386Z,5.28
2023-03-06T18:29:06.199Z,5.18
2023-03-06T18:31:37.990Z,5.21
2023-03-06T18:34:14.777Z,5.07
2023-03-06T18:36:43.603Z,5.07
2023-03-06T18:39:12.869Z,5.05
2023-03-06T18:41:41.376Z,4.96
2023-03-06T18:44:09.294Z,5.20
2023-03-06T18:46:38.413Z,5.09
2023-03-06T18:49:06.734Z,5.14
2023-03-06T18:51:35.272Z,5.04
2023-03-06T18:54:04.715Z,5.08
2023-03-06T18:56:33.652Z,5.08
2023-03-06T18:59:05.794Z,5.06
2023-03-06T19:01:34.464Z,5.03
2023-03-06T19:04:04.144Z,5.01
2023-03-06T19:06:32.242Z,4.96
2023-03-06T19:09:01.816Z,5.10
2023-03-06T19:11:31.965Z,4.98
2023-03-06T19:14:00.268Z,5.04
2023-03-06T19:16:30.241Z,5.00
2023-03-06T19:18:58.946Z,4.96
2023-03-06T19:21:28.162Z,4.93
2023-03-06T19:23:56.219Z,4.91
2023-03-06T19:26:25.187Z,4.99
2023-03-06T19:28:53.144Z,4.96
2023-03-06T19:31:26.881Z,4.89
2023-03-06T19:33:56.738Z,4.91
2023-03-06T19:36:28.746Z,5.01
2023-03-06T19:38:58.844Z,5.03
2023-03-06T19:41:27.324Z,4.90
2023-03-06T19:43:58.410Z,4.87
2023-03-06T19:46:27.466Z,4.93
2023-03-06T19:48:57.851Z,4.85
2023-03-06T19:51:26.882Z,4.95
2023-03-06T19:53:56.668Z,4.93
2023-03-06T19:56:28.902Z,4.88
2023-03-06T19:58:57.404Z,4.95
2023-03-06T20:01:27.629Z,4.87
2023-03-06T20:04:00.340Z,4.86
2023-03-06T20:06:31.506Z,4.85
2023-03-06T20:09:01.679Z,4.92
2023-03-06T20:11:32.579Z,4.83
2023-03-06T20:14:02.578Z,4.91
2023-03-06T20:16:31.388Z,4.85
2023-03-06T20:19:00.966Z,5.01
2023-03-06T20:21:31.750Z,5.01
2023-03-06T20:23:59.730Z,4.90
2023-03-06T20:26:29.647Z,4.91
2023-03-06T20:28:58.392Z,4.95
2023-03-06T20:31:28.661Z,4.92
2023-03-06T20:33:58.206Z,4.96
2023-03-06T20:36:40.266Z,4.83
2023-03-06T20:39:11.851Z,4.73
2023-03-06T20:41:40.079Z,4.74
2023-03-06T20:44:11.477Z,4.83
2023-03-06T20:46:40.601Z,4.82
2023-03-06T20:49:08.705Z,4.84
2023-03-06T20:51:39.198Z,4.81
2023-03-06T20:54:10.064Z,4.80
2023-03-06T20:56:39.666Z,4.75
2023-03-06T20:59:11.561Z,4.66
2023-03-06T21:01:42.151Z,4.72
2023-03-06T21:04:13.560Z,4.69
2023-03-06T21:06:46.404Z,4.68
2023-03-06T21:09:16.513Z,4.66
2023-03-06T21:11:44.689Z,4.70
2023-03-06T21:14:14.265Z,4.72
2023-03-06T21:16:42.486Z,4.63
2023-03-06T21:19:10.684Z,4.63
2023-03-06T21:21:38.563Z,4.76
2023-03-06T21:24:06.558Z,4.86
2023-03-06T21:26:34.456Z,4.76
2023-03-06T21:29:02.610Z,4.77
2023-03-06T21:31:31.496Z,4.55
2023-03-06T21:33:59.686Z,4.53
2023-03-06T21:36:28.198Z,4.58
2023-03-06T21:38:56.130Z,4.65
2023-03-06T21:41:26.980Z,4.50
2023-03-06T21:44:00.184Z,4.56
2023-03-06T21:46:28.568Z,4.61
2023-03-06T21:48:57.328Z,4.57
2023-03-06T21:51:26.715Z,4.68
2023-03-06T21:53:55.484Z,4.54
2023-03-06T21:56:25.430Z,4.54
2023-03-06T21:58:53.448Z,4.50
2023-03-06T22:01:25.238Z,4.60
2023-03-06T22:03:53.505Z,4.59
2023-03-06T22:06:26.693Z,4.55
2023-03-06T22:08:56.597Z,4.41
2023-03-06T22:11:25.567Z,4.40
2023-03-06T22:13:53.692Z,4.36
2023-03-06T22:16:21.886Z,4.43
2023-03-06T22:18:51.273Z,4.54
2023-03-06T22:21:21.616Z,4.36
2023-03-06T22:23:59.154Z,4.38
2023-03-06T22:26:29.220Z,4.40
2023-03-06T22:28:57.115Z,4.18
2023-03-06T22:31:28.483Z,4.50
2023-03-06T22:33:59.285Z,4.40
2023-03-06T22:36:30.404Z,4.53
2023-03-06T22:39:00.733Z,4.38
2023-03-06T22:41:29.685Z,4.37
2023-03-06T22:43:59.941Z,4.41
2023-03-06T22:46:28.506Z,4.31
2023-03-06T22:49:00.181Z,4.24
2023-03-06T22:51:29.529Z,4.39
2023-03-06T22:53:58.139Z,4.21
2023-03-06T22:56:26.048Z,4.27
2023-03-06T22:58:53.953Z,4.49
2023-03-06T23:01:25.336Z,4.16
2023-03-06T23:03:55.747Z,4.24
2023-03-06T23:06:26.382Z,4.05
2023-03-06T23:09:03.532Z,4.24
2023-03-06T23:11:32.566Z,4.17
2023-03-06T23:14:19.763Z,4.39
2023-03-06T23:17:06.864Z,4.19
2023-03-06T23:19:53.532Z,4.18
2023-03-06T23:22:39.665Z,4.28
2023-03-06T23:25:26.011Z,4.25
2023-03-06T23:27:55.674Z,4.10
2023-03-06T23:30:23.497Z,4.19
2023-03-06T23:32:51.350Z,4.11
2023-03-06T23:35:19.251Z,4.13
2023-03-06T23:37:47.341Z,4.20
2023-03-06T23:40:15.592Z,4.15
2023-03-06T23:42:43.555Z,4.16
2023-03-06T23:45:11.781Z,4.05
2023-03-06T23:47:39.702Z,4.14
2023-03-06T23:50:07.989Z,4.02
2023-03-06T23:52:35.883Z,3.86
2023-03-06T23:55:05.584Z,3.80
2023-03-06T23:57:33.421Z,3.98
